sensor_id;sensor_type;location;lat;lon;timestamp;temperature;humidity
66190;DHT22;52992;52.084;5.412;2023-10-09T00:02:12;19.90;62.60
66190;DHT22;52992;52.084;5.412;2023-10-09T00:04:42;19.90;62.60
66190;DHT22;52992;52.084;5.412;2023-10-09T00:07:12;19.90;62.70
66190;DHT22;52992;52.084;5.412;2023-10-09T00:09:39;19.90;63.00
66190;DHT22;52992;52.084;5.412;2023-10-09T00:12:18;20.00;63.10
66190;DHT22;52992;52.084;5.412;2023-10-09T00:14:50;20.00;62.90
66190;DHT22;52992;52.084;5.412;2023-10-09T00:17:23;20.00;62.80
66190;DHT22;52992;52.084;5.412;2023-10-09T00:19:50;20.10;62.80
66190;DHT22;52992;52.084;5.412;2023-10-09T00:22:26;20.10;62.80
66190;DHT22;52992;52.084;5.412;2023-10-09T00:24:56;20.00;62.70
66190;DHT22;52992;52.084;5.412;2023-10-09T00:27:46;20.00;62.70
66190;DHT22;52992;52.084;5.412;2023-10-09T00:30:16;20.10;62.70
66190;DHT22;52992;52.084;5.412;2023-10-09T00:32:48;20.10;62.70
66190;DHT22;52992;52.084;5.412;2023-10-09T00:35:37;20.00;62.50
66190;DHT22;52992;52.084;5.412;2023-10-09T00:38:13;20.00;62.40
66190;DHT22;52992;52.084;5.412;2023-10-09T00:40:47;20.10;62.50
66190;DHT22;52992;52.084;5.412;2023-10-09T00:43:19;20.00;62.40
66190;DHT22;52992;52.084;5.412;2023-10-09T00:45:47;20.10;62.50
66190;DHT22;52992;52.084;5.412;2023-10-09T00:48:14;20.10;62.50
66190;DHT22;52992;52.084;5.412;2023-10-09T00:50:49;20.10;62.40
66190;DHT22;52992;52.084;5.412;2023-10-09T00:53:20;20.00;62.20
66190;DHT22;52992;52.084;5.412;2023-10-09T00:56:01;20.00;62.30
66190;DHT22;52992;52.084;5.412;2023-10-09T00:58:58;20.00;62.20
66190;DHT22;52992;52.084;5.412;2023-10-09T01:01:36;20.10;62.20
66190;DHT22;52992;52.084;5.412;2023-10-09T01:04:06;20.10;62.20
66190;DHT22;52992;52.084;5.412;2023-10-09T01:06:46;20.10;62.30
66190;DHT22;52992;52.084;5.412;2023-10-09T01:09:32;20.10;62.30
66190;DHT22;52992;52.084;5.412;2023-10-09T01:12:09;20.20;62.30
66190;DHT22;52992;52.084;5.412;2023-10-09T01:14:44;20.10;62.30
66190;DHT22;52992;52.084;5.412;2023-10-09T01:17:11;20.20;62.30
66190;DHT22;52992;52.084;5.412;2023-10-09T01:19:45;20.10;62.40
66190;DHT22;52992;52.084;5.412;2023-10-09T01:22:14;20.20;62.30
66190;DHT22;52992;52.084;5.412;2023-10-09T01:24:42;20.20;62.30
66190;DHT22;52992;52.084;5.412;2023-10-09T01:27:10;20.20;62.30
66190;DHT22;52992;52.084;5.412;2023-10-09T01:29:44;20.20;62.30
66190;DHT22;52992;52.084;5.412;2023-10-09T01:32:13;20.20;62.30
66190;DHT22;52992;52.084;5.412;2023-10-09T01:34:44;20.20;62.20
66190;DHT22;52992;52.084;5.412;2023-10-09T01:37:17;20.20;62.30
66190;DHT22;52992;52.084;5.412;2023-10-09T01:39:56;20.20;62.40
66190;DHT22;52992;52.084;5.412;2023-10-09T01:42:46;20.20;62.30
66190;DHT22;52992;52.084;5.412;2023-10-09T01:45:14;20.20;62.10
66190;DHT22;52992;52.084;5.412;2023-10-09T01:47:47;20.30;62.40
66190;DHT22;52992;52.084;5.412;2023-10-09T01:50:21;20.30;62.40
66190;DHT22;52992;52.084;5.412;2023-10-09T01:52:58;20.30;62.50
66190;DHT22;52992;52.084;5.412;2023-10-09T01:55:32;20.30;62.50
66190;DHT22;52992;52.084;5.412;2023-10-09T01:58:06;20.30;62.40
66190;DHT22;52992;52.084;5.412;2023-10-09T02:00:51;20.30;62.30
66190;DHT22;52992;52.084;5.412;2023-10-09T02:03:22;20.30;62.20
66190;DHT22;52992;52.084;5.412;2023-10-09T02:05:56;20.30;62.30
66190;DHT22;52992;52.084;5.412;2023-10-09T02:08:27;20.30;62.30
66190;DHT22;52992;52.084;5.412;2023-10-09T02:10:54;20.20;62.30
66190;DHT22;52992;52.084;5.412;2023-10-09T02:13:23;20.20;62.30
66190;DHT22;52992;52.084;5.412;2023-10-09T02:15:57;20.20;63.10
66190;DHT22;52992;52.084;5.412;2023-10-09T02:18:41;20.20;62.50
66190;DHT22;52992;52.084;5.412;2023-10-09T02:21:20;20.20;62.40
66190;DHT22;52992;52.084;5.412;2023-10-09T02:24:02;20.20;62.50
66190;DHT22;52992;52.084;5.412;2023-10-09T02:26:33;20.20;62.50
66190;DHT22;52992;52.084;5.412;2023-10-09T02:29:00;20.20;62.50
66190;DHT22;52992;52.084;5.412;2023-10-09T02:31:30;20.20;62.50
66190;DHT22;52992;52.084;5.412;2023-10-09T02:34:23;20.20;62.60
66190;DHT22;52992;52.084;5.412;2023-10-09T02:36:52;20.20;62.60
66190;DHT22;52992;52.084;5.412;2023-10-09T02:39:32;20.20;62.70
66190;DHT22;52992;52.084;5.412;2023-10-09T02:42:10;20.20;62.70
66190;DHT22;52992;52.084;5.412;2023-10-09T02:44:40;20.20;62.70
66190;DHT22;52992;52.084;5.412;2023-10-09T02:47:13;20.20;62.70
66190;DHT22;52992;52.084;5.412;2023-10-09T02:49:47;20.20;62.60
66190;DHT22;52992;52.084;5.412;2023-10-09T02:52:18;20.20;62.60
66190;DHT22;52992;52.084;5.412;2023-10-09T02:54:46;20.20;62.70
66190;DHT22;52992;52.084;5.412;2023-10-09T02:57:20;20.20;62.60
66190;DHT22;52992;52.084;5.412;2023-10-09T02:59:50;20.20;62.60
66190;DHT22;52992;52.084;5.412;2023-10-09T03:02:20;20.20;62.60
66190;DHT22;52992;52.084;5.412;2023-10-09T03:04:49;20.20;62.70
66190;DHT22;52992;52.084;5.412;2023-10-09T03:07:16;20.20;62.80
66190;DHT22;52992;52.084;5.412;2023-10-09T03:09:43;20.20;62.80
66190;DHT22;52992;52.084;5.412;2023-10-09T03:12:10;20.20;62.80
66190;DHT22;52992;52.084;5.412;2023-10-09T03:14:40;20.30;62.80
66190;DHT22;52992;52.084;5.412;2023-10-09T03:17:08;20.30;62.70
66190;DHT22;52992;52.084;5.412;2023-10-09T03:19:41;20.30;62.80
66190;DHT22;52992;52.084;5.412;2023-10-09T03:22:08;20.30;62.90
66190;DHT22;52992;52.084;5.412;2023-10-09T03:24:39;20.20;62.90
66190;DHT22;52992;52.084;5.412;2023-10-09T03:27:18;20.30;63.00
66190;DHT22;52992;52.084;5.412;2023-10-09T03:29:45;20.30;62.90
66190;DHT22;52992;52.084;5.412;2023-10-09T03:32:17;20.30;62.90
66190;DHT22;52992;52.084;5.412;2023-10-09T03:34:46;20.30;62.90
66190;DHT22;52992;52.084;5.412;2023-10-09T03:37:13;20.30;62.90
66190;DHT22;52992;52.084;5.412;2023-10-09T03:39:49;20.40;62.90
66190;DHT22;52992;52.084;5.412;2023-10-09T03:42:22;20.30;63.10
66190;DHT22;52992;52.084;5.412;2023-10-09T03:44:49;20.40;63.10
66190;DHT22;52992;52.084;5.412;2023-10-09T03:47:20;20.40;63.20
66190;DHT22;52992;52.084;5.412;2023-10-09T03:49:51;20.50;63.20
66190;DHT22;52992;52.084;5.412;2023-10-09T03:52:20;20.40;63.00
66190;DHT22;52992;52.084;5.412;2023-10-09T03:54:50;20.40;62.90
66190;DHT22;52992;52.084;5.412;2023-10-09T03:57:17;20.40;63.20
66190;DHT22;52992;52.084;5.412;2023-10-09T03:59:47;20.40;63.40
66190;DHT22;52992;52.084;5.412;2023-10-09T04:02:15;20.40;63.50
66190;DHT22;52992;52.084;5.412;2023-10-09T04:04:43;20.50;63.60
66190;DHT22;52992;52.084;5.412;2023-10-09T04:07:14;20.50;63.60
66190;DHT22;52992;52.084;5.412;2023-10-09T04:09:45;20.50;63.40
66190;DHT22;52992;52.084;5.412;2023-10-09T04:12:15;20.50;63.50
66190;DHT22;52992;52.084;5.412;2023-10-09T04:14:52;20.50;63.70
66190;DHT22;52992;52.084;5.412;2023-10-09T04:17:24;20.50;63.80
66190;DHT22;52992;52.084;5.412;2023-10-09T04:19:51;20.50;63.90
66190;DHT22;52992;52.084;5.412;2023-10-09T04:22:37;20.50;63.90
66190;DHT22;52992;52.084;5.412;2023-10-09T04:25:20;20.50;63.80
66190;DHT22;52992;52.084;5.412;2023-10-09T04:27:56;20.50;63.80
66190;DHT22;52992;52.084;5.412;2023-10-09T04:30:38;20.50;63.70
66190;DHT22;52992;52.084;5.412;2023-10-09T04:33:10;20.50;63.70
66190;DHT22;52992;52.084;5.412;2023-10-09T04:36:05;20.50;63.70
66190;DHT22;52992;52.084;5.412;2023-10-09T04:38:49;20.50;63.70
66190;DHT22;52992;52.084;5.412;2023-10-09T04:41:26;20.50;63.70
66190;DHT22;52992;52.084;5.412;2023-10-09T04:43:59;20.50;63.90
66190;DHT22;52992;52.084;5.412;2023-10-09T04:46:53;20.50;63.70
66190;DHT22;52992;52.084;5.412;2023-10-09T04:49:40;20.50;63.70
66190;DHT22;52992;52.084;5.412;2023-10-09T04:52:28;20.60;63.70
66190;DHT22;52992;52.084;5.412;2023-10-09T04:54:55;20.60;63.90
66190;DHT22;52992;52.084;5.412;2023-10-09T04:57:31;20.60;63.90
66190;DHT22;52992;52.084;5.412;2023-10-09T05:00:05;20.60;63.70
66190;DHT22;52992;52.084;5.412;2023-10-09T05:05:25;20.70;64.00
66190;DHT22;52992;52.084;5.412;2023-10-09T05:08:13;20.70;64.00
66190;DHT22;52992;52.084;5.412;2023-10-09T05:11:01;20.70;64.10
66190;DHT22;52992;52.084;5.412;2023-10-09T05:13:35;20.70;64.00
66190;DHT22;52992;52.084;5.412;2023-10-09T05:18:47;20.70;64.10
66190;DHT22;52992;52.084;5.412;2023-10-09T05:21:33;20.70;64.30
66190;DHT22;52992;52.084;5.412;2023-10-09T05:24:12;20.70;64.40
66190;DHT22;52992;52.084;5.412;2023-10-09T05:29:21;20.70;64.60
66190;DHT22;52992;52.084;5.412;2023-10-09T05:32:04;20.70;64.70
66190;DHT22;52992;52.084;5.412;2023-10-09T05:34:41;20.70;64.60
66190;DHT22;52992;52.084;5.412;2023-10-09T05:37:28;20.70;64.60
66190;DHT22;52992;52.084;5.412;2023-10-09T05:40:06;20.70;64.80
66190;DHT22;52992;52.084;5.412;2023-10-09T05:42:46;20.70;65.00
66190;DHT22;52992;52.084;5.412;2023-10-09T05:45:25;20.80;65.00
66190;DHT22;52992;52.084;5.412;2023-10-09T05:48:11;20.80;64.90
66190;DHT22;52992;52.084;5.412;2023-10-09T05:50:44;20.80;65.00
66190;DHT22;52992;52.084;5.412;2023-10-09T05:53:31;20.80;65.00
66190;DHT22;52992;52.084;5.412;2023-10-09T05:56:01;20.90;65.10
66190;DHT22;52992;52.084;5.412;2023-10-09T05:58:46;20.90;65.10
66190;DHT22;52992;52.084;5.412;2023-10-09T06:01:36;20.90;65.10
66190;DHT22;52992;52.084;5.412;2023-10-09T06:04:22;20.90;65.10
66190;DHT22;52992;52.084;5.412;2023-10-09T06:07:00;20.90;65.10
66190;DHT22;52992;52.084;5.412;2023-10-09T06:09:38;20.90;65.20
66190;DHT22;52992;52.084;5.412;2023-10-09T06:12:23;21.00;65.20
66190;DHT22;52992;52.084;5.412;2023-10-09T06:15:00;21.00;65.20
66190;DHT22;52992;52.084;5.412;2023-10-09T06:17:46;21.00;65.10
66190;DHT22;52992;52.084;5.412;2023-10-09T06:20:19;21.00;65.00
66190;DHT22;52992;52.084;5.412;2023-10-09T06:23:04;21.00;65.00
66190;DHT22;52992;52.084;5.412;2023-10-09T06:25:44;21.00;65.00
66190;DHT22;52992;52.084;5.412;2023-10-09T06:28:18;21.10;65.10
66190;DHT22;52992;52.084;5.412;2023-10-09T06:30:59;21.10;65.00
66190;DHT22;52992;52.084;5.412;2023-10-09T06:33:46;21.10;65.00
66190;DHT22;52992;52.084;5.412;2023-10-09T06:36:33;21.10;64.80
66190;DHT22;52992;52.084;5.412;2023-10-09T06:39:00;21.20;64.70
66190;DHT22;52992;52.084;5.412;2023-10-09T06:41:45;21.10;64.80
66190;DHT22;52992;52.084;5.412;2023-10-09T06:44:33;21.20;64.70
66190;DHT22;52992;52.084;5.412;2023-10-09T06:47:18;21.10;64.80
66190;DHT22;52992;52.084;5.412;2023-10-09T06:49:45;21.20;64.90
66190;DHT22;52992;52.084;5.412;2023-10-09T06:52:32;21.20;64.90
66190;DHT22;52992;52.084;5.412;2023-10-09T06:55:19;21.20;65.00
66190;DHT22;52992;52.084;5.412;2023-10-09T06:58:00;21.20;65.10
66190;DHT22;52992;52.084;5.412;2023-10-09T07:00:28;21.30;65.10
66190;DHT22;52992;52.084;5.412;2023-10-09T07:03:14;21.30;65.00
66190;DHT22;52992;52.084;5.412;2023-10-09T07:05:44;21.30;65.00
66190;DHT22;52992;52.084;5.412;2023-10-09T07:08:32;21.40;64.90
66190;DHT22;52992;52.084;5.412;2023-10-09T07:11:00;21.40;64.90
66190;DHT22;52992;52.084;5.412;2023-10-09T07:13:48;21.40;65.00
66190;DHT22;52992;52.084;5.412;2023-10-09T07:16:21;21.40;65.00
66190;DHT22;52992;52.084;5.412;2023-10-09T07:18:56;21.40;64.90
66190;DHT22;52992;52.084;5.412;2023-10-09T07:21:36;21.40;64.90
66190;DHT22;52992;52.084;5.412;2023-10-09T07:24:06;21.50;65.00
66190;DHT22;52992;52.084;5.412;2023-10-09T07:26:41;21.40;64.90
66190;DHT22;52992;52.084;5.412;2023-10-09T07:29:14;21.40;65.10
66190;DHT22;52992;52.084;5.412;2023-10-09T07:31:49;21.40;65.20
66190;DHT22;52992;52.084;5.412;2023-10-09T07:34:24;21.40;65.20
66190;DHT22;52992;52.084;5.412;2023-10-09T07:37:09;21.40;65.10
66190;DHT22;52992;52.084;5.412;2023-10-09T07:39:36;21.40;65.10
66190;DHT22;52992;52.084;5.412;2023-10-09T07:42:05;21.40;65.20
66190;DHT22;52992;52.084;5.412;2023-10-09T07:45:01;21.40;65.10
66190;DHT22;52992;52.084;5.412;2023-10-09T07:47:39;21.50;64.90
66190;DHT22;52992;52.084;5.412;2023-10-09T07:50:25;21.50;65.00
66190;DHT22;52992;52.084;5.412;2023-10-09T07:53:05;21.60;65.00
66190;DHT22;52992;52.084;5.412;2023-10-09T07:55:51;21.70;65.00
66190;DHT22;52992;52.084;5.412;2023-10-09T07:58:22;21.90;64.80
66190;DHT22;52992;52.084;5.412;2023-10-09T08:00:57;22.00;64.60
66190;DHT22;52992;52.084;5.412;2023-10-09T08:03:36;22.10;64.50
66190;DHT22;52992;52.084;5.412;2023-10-09T08:06:04;22.10;64.50
66190;DHT22;52992;52.084;5.412;2023-10-09T08:08:56;22.10;64.60
66190;DHT22;52992;52.084;5.412;2023-10-09T08:11:30;22.20;64.60
66190;DHT22;52992;52.084;5.412;2023-10-09T08:14:07;22.20;64.80
66190;DHT22;52992;52.084;5.412;2023-10-09T08:16:54;22.20;65.50
66190;DHT22;52992;52.084;5.412;2023-10-09T08:19:41;22.20;64.60
66190;DHT22;52992;52.084;5.412;2023-10-09T08:22:25;22.20;64.80
66190;DHT22;52992;52.084;5.412;2023-10-09T08:24:53;22.20;64.80
66190;DHT22;52992;52.084;5.412;2023-10-09T08:27:27;22.20;65.00
66190;DHT22;52992;52.084;5.412;2023-10-09T08:32:49;22.20;65.70
66190;DHT22;52992;52.084;5.412;2023-10-09T08:35:36;22.30;65.00
66190;DHT22;52992;52.084;5.412;2023-10-09T08:38:16;22.40;64.70
66190;DHT22;52992;52.084;5.412;2023-10-09T08:40:51;22.40;64.60
66190;DHT22;52992;52.084;5.412;2023-10-09T08:43:22;22.50;64.70
66190;DHT22;52992;52.084;5.412;2023-10-09T08:45:56;22.40;64.60
66190;DHT22;52992;52.084;5.412;2023-10-09T08:48:30;22.50;64.70
66190;DHT22;52992;52.084;5.412;2023-10-09T08:50:56;22.50;64.70
66190;DHT22;52992;52.084;5.412;2023-10-09T08:53:25;22.60;64.50
66190;DHT22;52992;52.084;5.412;2023-10-09T08:55:55;22.70;64.40
66190;DHT22;52992;52.084;5.412;2023-10-09T08:58:24;22.80;64.20
66190;DHT22;52992;52.084;5.412;2023-10-09T09:01:04;22.90;64.10
66190;DHT22;52992;52.084;5.412;2023-10-09T09:03:41;23.00;64.00
66190;DHT22;52992;52.084;5.412;2023-10-09T09:06:10;23.00;63.90
66190;DHT22;52992;52.084;5.412;2023-10-09T09:08:41;23.10;63.90
66190;DHT22;52992;52.084;5.412;2023-10-09T09:11:14;23.10;63.80
66190;DHT22;52992;52.084;5.412;2023-10-09T09:13:46;23.10;63.60
66190;DHT22;52992;52.084;5.412;2023-10-09T09:16:18;23.10;63.80
66190;DHT22;52992;52.084;5.412;2023-10-09T09:19:03;23.10;63.80
66190;DHT22;52992;52.084;5.412;2023-10-09T09:21:38;23.10;63.70
66190;DHT22;52992;52.084;5.412;2023-10-09T09:24:11;23.20;63.70
66190;DHT22;52992;52.084;5.412;2023-10-09T09:26:51;23.30;63.50
66190;DHT22;52992;52.084;5.412;2023-10-09T09:29:38;23.30;63.20
66190;DHT22;52992;52.084;5.412;2023-10-09T09:32:08;23.40;62.80
66190;DHT22;52992;52.084;5.412;2023-10-09T09:37:28;23.50;62.70
66190;DHT22;52992;52.084;5.412;2023-10-09T09:39:58;23.60;62.50
66190;DHT22;52992;52.084;5.412;2023-10-09T09:42:32;23.60;62.30
66190;DHT22;52992;52.084;5.412;2023-10-09T09:45:01;23.70;62.30
66190;DHT22;52992;52.084;5.412;2023-10-09T09:47:31;23.70;62.20
66190;DHT22;52992;52.084;5.412;2023-10-09T09:50:05;23.70;62.30
66190;DHT22;52992;52.084;5.412;2023-10-09T09:52:39;23.70;62.30
66190;DHT22;52992;52.084;5.412;2023-10-09T09:55:09;23.80;62.00
66190;DHT22;52992;52.084;5.412;2023-10-09T09:57:49;23.80;61.70
66190;DHT22;52992;52.084;5.412;2023-10-09T10:00:22;23.80;61.80
66190;DHT22;52992;52.084;5.412;2023-10-09T10:03:03;23.90;61.80
66190;DHT22;52992;52.084;5.412;2023-10-09T10:05:33;24.00;61.30
66190;DHT22;52992;52.084;5.412;2023-10-09T10:08:02;24.10;61.20
66190;DHT22;52992;52.084;5.412;2023-10-09T10:10:36;24.10;60.80
66190;DHT22;52992;52.084;5.412;2023-10-09T10:13:05;24.00;60.70
66190;DHT22;52992;52.084;5.412;2023-10-09T10:16:00;24.00;61.00
66190;DHT22;52992;52.084;5.412;2023-10-09T10:18:58;23.90;61.00
66190;DHT22;52992;52.084;5.412;2023-10-09T10:21:28;23.90;61.10
66190;DHT22;52992;52.084;5.412;2023-10-09T10:23:59;23.90;60.80
66190;DHT22;52992;52.084;5.412;2023-10-09T10:26:38;24.00;60.90
66190;DHT22;52992;52.084;5.412;2023-10-09T10:32:00;23.90;60.90
66190;DHT22;52992;52.084;5.412;2023-10-09T10:34:54;23.90;60.80
66190;DHT22;52992;52.084;5.412;2023-10-09T10:37:37;23.90;61.10
66190;DHT22;52992;52.084;5.412;2023-10-09T10:40:30;24.00;61.00
66190;DHT22;52992;52.084;5.412;2023-10-09T10:43:07;24.10;61.10
66190;DHT22;52992;52.084;5.412;2023-10-09T10:46:05;24.10;60.90
66190;DHT22;52992;52.084;5.412;2023-10-09T10:48:41;24.20;60.50
66190;DHT22;52992;52.084;5.412;2023-10-09T10:51:14;24.30;60.30
66190;DHT22;52992;52.084;5.412;2023-10-09T10:53:54;24.40;60.00
66190;DHT22;52992;52.084;5.412;2023-10-09T10:56:24;24.40;59.70
66190;DHT22;52992;52.084;5.412;2023-10-09T10:59:02;24.40;59.50
66190;DHT22;52992;52.084;5.412;2023-10-09T11:01:32;24.50;59.40
66190;DHT22;52992;52.084;5.412;2023-10-09T11:04:22;24.50;59.00
66190;DHT22;52992;52.084;5.412;2023-10-09T11:07:00;24.50;58.90
66190;DHT22;52992;52.084;5.412;2023-10-09T11:09:47;24.50;58.80
66190;DHT22;52992;52.084;5.412;2023-10-09T11:15:35;24.60;58.20
66190;DHT22;52992;52.084;5.412;2023-10-09T11:18:14;24.70;58.50
66190;DHT22;52992;52.084;5.412;2023-10-09T11:20:53;24.80;57.70
66190;DHT22;52992;52.084;5.412;2023-10-09T11:23:31;24.80;57.50
66190;DHT22;52992;52.084;5.412;2023-10-09T11:26:03;24.90;57.50
66190;DHT22;52992;52.084;5.412;2023-10-09T11:32:04;25.00;57.90
66190;DHT22;52992;52.084;5.412;2023-10-09T11:34:33;25.00;57.60
66190;DHT22;52992;52.084;5.412;2023-10-09T11:37:12;25.00;58.10
66190;DHT22;52992;52.084;5.412;2023-10-09T11:39:39;25.10;57.80
66190;DHT22;52992;52.084;5.412;2023-10-09T11:42:27;25.20;57.40
66190;DHT22;52992;52.084;5.412;2023-10-09T11:45:27;25.20;56.90
66190;DHT22;52992;52.084;5.412;2023-10-09T11:48:17;25.20;56.70
66190;DHT22;52992;52.084;5.412;2023-10-09T11:50:52;25.10;57.40
66190;DHT22;52992;52.084;5.412;2023-10-09T11:53:22;25.10;58.00
66190;DHT22;52992;52.084;5.412;2023-10-09T11:55:50;25.10;57.20
66190;DHT22;52992;52.084;5.412;2023-10-09T11:58:20;25.10;57.50
66190;DHT22;52992;52.084;5.412;2023-10-09T12:00:51;25.20;57.00
66190;DHT22;52992;52.084;5.412;2023-10-09T12:03:25;25.10;56.60
66190;DHT22;52992;52.084;5.412;2023-10-09T12:06:04;25.00;56.50
66190;DHT22;52992;52.084;5.412;2023-10-09T12:08:32;24.90;57.00
66190;DHT22;52992;52.084;5.412;2023-10-09T12:11:01;24.90;57.00
66190;DHT22;52992;52.084;5.412;2023-10-09T12:13:36;24.80;57.20
66190;DHT22;52992;52.084;5.412;2023-10-09T12:16:05;24.80;57.00
66190;DHT22;52992;52.084;5.412;2023-10-09T12:18:38;24.70;57.10
66190;DHT22;52992;52.084;5.412;2023-10-09T12:21:06;24.70;57.10
66190;DHT22;52992;52.084;5.412;2023-10-09T12:23:33;24.70;57.20
66190;DHT22;52992;52.084;5.412;2023-10-09T12:26:04;24.80;57.30
66190;DHT22;52992;52.084;5.412;2023-10-09T12:28:31;24.80;57.20
66190;DHT22;52992;52.084;5.412;2023-10-09T12:31:01;24.80;57.40
66190;DHT22;52992;52.084;5.412;2023-10-09T12:33:29;24.80;57.50
66190;DHT22;52992;52.084;5.412;2023-10-09T12:35:57;24.70;57.60
66190;DHT22;52992;52.084;5.412;2023-10-09T12:38:28;24.70;57.60
66190;DHT22;52992;52.084;5.412;2023-10-09T12:43:35;24.50;57.80
66190;DHT22;52992;52.084;5.412;2023-10-09T12:46:06;24.60;58.00
66190;DHT22;52992;52.084;5.412;2023-10-09T12:48:34;24.50;58.00
66190;DHT22;52992;52.084;5.412;2023-10-09T12:51:02;24.50;58.30
66190;DHT22;52992;52.084;5.412;2023-10-09T12:53:33;24.50;58.50
66190;DHT22;52992;52.084;5.412;2023-10-09T12:56:00;24.50;58.30
66190;DHT22;52992;52.084;5.412;2023-10-09T12:58:27;24.50;58.00
66190;DHT22;52992;52.084;5.412;2023-10-09T13:00:54;24.60;58.00
66190;DHT22;52992;52.084;5.412;2023-10-09T13:03:21;24.60;57.90
66190;DHT22;52992;52.084;5.412;2023-10-09T13:05:52;24.60;58.10
66190;DHT22;52992;52.084;5.412;2023-10-09T13:08:21;24.60;58.30
66190;DHT22;52992;52.084;5.412;2023-10-09T13:10:51;24.60;58.10
66190;DHT22;52992;52.084;5.412;2023-10-09T13:13:26;24.60;58.10
66190;DHT22;52992;52.084;5.412;2023-10-09T13:16:16;24.50;58.10
66190;DHT22;52992;52.084;5.412;2023-10-09T13:18:58;24.60;58.30
66190;DHT22;52992;52.084;5.412;2023-10-09T13:21:28;24.70;58.30
66190;DHT22;52992;52.084;5.412;2023-10-09T13:24:01;24.60;58.10
66190;DHT22;52992;52.084;5.412;2023-10-09T13:26:29;24.50;58.10
66190;DHT22;52992;52.084;5.412;2023-10-09T13:29:01;24.60;58.40
66190;DHT22;52992;52.084;5.412;2023-10-09T13:31:30;24.60;58.50
66190;DHT22;52992;52.084;5.412;2023-10-09T13:34:02;24.60;58.50
66190;DHT22;52992;52.084;5.412;2023-10-09T13:36:29;24.60;58.20
66190;DHT22;52992;52.084;5.412;2023-10-09T13:39:06;24.60;58.20
66190;DHT22;52992;52.084;5.412;2023-10-09T13:41:58;24.60;58.30
66190;DHT22;52992;52.084;5.412;2023-10-09T13:44:28;24.60;58.10
66190;DHT22;52992;52.084;5.412;2023-10-09T13:46:57;24.60;58.00
66190;DHT22;52992;52.084;5.412;2023-10-09T13:49:24;24.60;58.20
66190;DHT22;52992;52.084;5.412;2023-10-09T13:52:02;24.60;58.20
66190;DHT22;52992;52.084;5.412;2023-10-09T13:54:30;24.70;58.20
66190;DHT22;52992;52.084;5.412;2023-10-09T13:57:01;24.70;57.90
66190;DHT22;52992;52.084;5.412;2023-10-09T13:59:32;24.80;57.70
66190;DHT22;52992;52.084;5.412;2023-10-09T14:01:59;24.70;57.30
66190;DHT22;52992;52.084;5.412;2023-10-09T14:04:26;24.70;57.60
66190;DHT22;52992;52.084;5.412;2023-10-09T14:06:53;24.60;57.70
66190;DHT22;52992;52.084;5.412;2023-10-09T14:09:28;24.60;57.60
66190;DHT22;52992;52.084;5.412;2023-10-09T14:11:58;24.50;57.70
66190;DHT22;52992;52.084;5.412;2023-10-09T14:14:39;24.50;57.70
66190;DHT22;52992;52.084;5.412;2023-10-09T14:17:17;24.50;57.40
66190;DHT22;52992;52.084;5.412;2023-10-09T14:19:52;24.40;57.60
66190;DHT22;52992;52.084;5.412;2023-10-09T14:22:22;24.50;57.70
66190;DHT22;52992;52.084;5.412;2023-10-09T14:24:54;24.40;57.70
66190;DHT22;52992;52.084;5.412;2023-10-09T14:27:26;24.40;57.50
66190;DHT22;52992;52.084;5.412;2023-10-09T14:29:55;24.40;57.60
66190;DHT22;52992;52.084;5.412;2023-10-09T14:32:28;24.40;57.70
66190;DHT22;52992;52.084;5.412;2023-10-09T14:35:01;24.30;57.60
66190;DHT22;52992;52.084;5.412;2023-10-09T14:37:29;24.30;57.70
66190;DHT22;52992;52.084;5.412;2023-10-09T14:39:58;24.30;57.70
66190;DHT22;52992;52.084;5.412;2023-10-09T14:42:26;24.20;57.60
66190;DHT22;52992;52.084;5.412;2023-10-09T14:44:55;24.20;57.50
66190;DHT22;52992;52.084;5.412;2023-10-09T14:47:24;24.20;57.50
66190;DHT22;52992;52.084;5.412;2023-10-09T14:49:52;24.20;57.60
66190;DHT22;52992;52.084;5.412;2023-10-09T14:52:20;24.10;57.40
66190;DHT22;52992;52.084;5.412;2023-10-09T14:54:48;24.10;57.50
66190;DHT22;52992;52.084;5.412;2023-10-09T14:57:17;24.10;57.80
66190;DHT22;52992;52.084;5.412;2023-10-09T14:59:45;24.10;57.70
66190;DHT22;52992;52.084;5.412;2023-10-09T15:02:13;24.10;58.00
66190;DHT22;52992;52.084;5.412;2023-10-09T15:04:40;24.10;58.00
66190;DHT22;52992;52.084;5.412;2023-10-09T15:07:07;24.10;58.00
66190;DHT22;52992;52.084;5.412;2023-10-09T15:09:35;24.10;57.90
66190;DHT22;52992;52.084;5.412;2023-10-09T15:12:04;24.10;58.00
66190;DHT22;52992;52.084;5.412;2023-10-09T15:14:34;24.10;58.10
66190;DHT22;52992;52.084;5.412;2023-10-09T15:17:01;24.10;57.90
66190;DHT22;52992;52.084;5.412;2023-10-09T15:19:29;24.10;58.90
66190;DHT22;52992;52.084;5.412;2023-10-09T15:21:57;24.10;58.10
66190;DHT22;52992;52.084;5.412;2023-10-09T15:24:26;24.10;58.20
66190;DHT22;52992;52.084;5.412;2023-10-09T15:26:57;24.10;58.30
66190;DHT22;52992;52.084;5.412;2023-10-09T15:29:25;24.10;58.10
66190;DHT22;52992;52.084;5.412;2023-10-09T15:31:56;24.10;58.20
66190;DHT22;52992;52.084;5.412;2023-10-09T15:34:23;24.10;58.20
66190;DHT22;52992;52.084;5.412;2023-10-09T15:36:51;24.00;58.30
66190;DHT22;52992;52.084;5.412;2023-10-09T15:39:20;24.00;58.50
66190;DHT22;52992;52.084;5.412;2023-10-09T15:41:48;24.00;58.40
66190;DHT22;52992;52.084;5.412;2023-10-09T15:44:16;24.00;58.50
66190;DHT22;52992;52.084;5.412;2023-10-09T15:46:44;24.00;58.60
66190;DHT22;52992;52.084;5.412;2023-10-09T15:49:14;24.00;58.60
66190;DHT22;52992;52.084;5.412;2023-10-09T15:51:42;24.00;58.80
66190;DHT22;52992;52.084;5.412;2023-10-09T15:54:10;24.00;58.90
66190;DHT22;52992;52.084;5.412;2023-10-09T15:56:39;24.00;58.80
66190;DHT22;52992;52.084;5.412;2023-10-09T15:59:14;24.00;58.90
66190;DHT22;52992;52.084;5.412;2023-10-09T16:01:43;24.00;58.80
66190;DHT22;52992;52.084;5.412;2023-10-09T16:04:10;24.00;58.80
66190;DHT22;52992;52.084;5.412;2023-10-09T16:06:38;24.00;58.90
66190;DHT22;52992;52.084;5.412;2023-10-09T16:09:06;24.10;58.90
66190;DHT22;52992;52.084;5.412;2023-10-09T16:11:38;24.10;58.90
66190;DHT22;52992;52.084;5.412;2023-10-09T16:14:07;24.10;58.90
66190;DHT22;52992;52.084;5.412;2023-10-09T16:16:37;24.10;59.00
66190;DHT22;52992;52.084;5.412;2023-10-09T16:19:09;24.00;58.90
66190;DHT22;52992;52.084;5.412;2023-10-09T16:21:39;24.10;59.00
66190;DHT22;52992;52.084;5.412;2023-10-09T16:24:07;24.00;59.10
66190;DHT22;52992;52.084;5.412;2023-10-09T16:26:36;24.00;59.10
66190;DHT22;52992;52.084;5.412;2023-10-09T16:29:09;23.90;59.30
66190;DHT22;52992;52.084;5.412;2023-10-09T16:31:37;23.80;59.40
66190;DHT22;52992;52.084;5.412;2023-10-09T16:34:07;23.80;59.40
66190;DHT22;52992;52.084;5.412;2023-10-09T16:36:35;23.70;59.50
66190;DHT22;52992;52.084;5.412;2023-10-09T16:39:05;23.70;59.50
66190;DHT22;52992;52.084;5.412;2023-10-09T16:41:46;23.70;59.50